Terminal Aerodrome Forecast
Issued by NWS

Home | Current Version | Previous Version | Text Only | Print | Product List | Glossary On
Versions: 1 2 3 4 5 6 7 8 9 10 11 12 13 14 15 16 17 18 19 20 21 22 23 24 25 26 27 28 29 30 31 32 33 34 35 36 37 38 39 40
000
FTUS41 KBOX 220306 AAC
TAFBAF
TAF AMD
KBAF 220306Z 2203/2224 VRB03KT 2SM BR BKN004 OVC015
      TEMPO 2203/2206 1/4SM FG VV002
     FM220600 27010KT 6SM BR BKN020
     FM220700 26008KT 6SM BR BKN050
     FM221000 26005KT P6SM SCT050 BKN250
     FM221400 29010G19KT P6SM SCT050
     FM221800 31014G22KT P6SM BKN050
     FM222200 31011G18KT P6SM SCT250=

USA.gov is the U.S. government's official web portal to all federal, state and local government web resources and services.